Time;durP1;ratioP1;P1;durP2;ratioP2;P2;SDS_P1;SDS_P2;PMS_P1;PMS_P2;Temp;Humidity;BMP_temperature;BMP_pressure;BME280_temperature;BME280_humidity;BME280_pressure;Samples;Min_cycle;Max_cycle;Signal;HPM_P1;HPM_P2
2021/01/13 00:00:44;;;;;;;10.70;1.45;;;0.60;96.00;;;;;;5033886;28;20032;-67
2021/01/13 00:03:10;;;;;;;8.40;1.35;;;0.70;96.00;;;;;;5024707;28;20470;-66
2021/01/13 00:05:37;;;;;;;4.45;1.20;;;0.70;95.90;;;;;;5025961;28;20056;-67
2021/01/13 00:08:03;;;;;;;12.90;1.60;;;0.70;95.80;;;;;;5032355;28;20029;-67
2021/01/13 00:10:29;;;;;;;9.20;1.40;;;0.70;95.60;;;;;;5029856;28;20114;-67
2021/01/13 00:12:54;;;;;;;7.82;1.25;;;0.80;95.60;;;;;;5030780;28;20409;-66
2021/01/13 00:15:20;;;;;;;11.73;1.85;;;0.90;95.50;;;;;;5026739;28;20037;-67
2021/01/13 00:17:49;;;;;;;11.93;1.73;;;0.90;95.20;;;;;;5031929;28;20033;-66
2021/01/13 00:20:15;;;;;;;8.15;1.33;;;0.90;95.20;;;;;;5030660;28;20041;-67
2021/01/13 00:22:44;;;;;;;12.35;1.52;;;0.80;95.30;;;;;;5027745;28;20422;-66
2021/01/13 00:25:11;;;;;;;6.05;1.20;;;0.80;95.50;;;;;;5021153;28;20030;-67
2021/01/13 00:27:36;;;;;;;5.93;1.45;;;0.90;95.60;;;;;;5030276;28;20048;-67
2021/01/13 00:30:04;;;;;;;8.63;0.90;;;0.90;95.40;;;;;;5029357;28;20053;-66
2021/01/13 00:32:31;;;;;;;8.10;1.80;;;0.90;95.30;;;;;;5061726;23;20021;-61
2021/01/13 00:34:57;;;;;;;15.25;1.55;;;0.90;95.30;;;;;;5024773;28;20030;-66
2021/01/13 00:37:23;;;;;;;10.02;1.17;;;1.00;95.10;;;;;;5027282;28;20025;-64
2021/01/13 00:39:48;;;;;;;12.10;1.88;;;1.00;95.30;;;;;;5025156;28;20034;-66
2021/01/13 00:42:14;;;;;;;9.82;1.40;;;0.90;95.40;;;;;;5031538;28;20028;-66
2021/01/13 00:44:39;;;;;;;7.80;1.38;;;0.90;95.60;;;;;;5015313;28;20473;-66
2021/01/13 00:47:05;;;;;;;12.13;1.83;;;0.80;96.00;;;;;;5007200;28;20044;-65
2021/01/13 00:49:31;;;;;;;10.38;1.30;;;0.90;96.10;;;;;;5005529;28;20034;-65
2021/01/13 00:51:56;;;;;;;8.15;1.45;;;0.90;95.90;;;;;;5008575;28;20030;-66
2021/01/13 00:54:22;;;;;;;6.75;1.13;;;0.90;95.90;;;;;;5005931;28;20355;-65
2021/01/13 00:56:48;;;;;;;4.10;0.73;;;1.00;95.60;;;;;;5007395;28;20282;-66
2021/01/13 00:59:15;;;;;;;8.00;1.23;;;0.90;95.80;;;;;;5004710;28;20602;-65
2021/01/13 01:01:42;;;;;;;3.75;0.70;;;0.70;96.20;;;;;;4990886;28;20026;-65
2021/01/13 01:04:09;;;;;;;6.18;1.00;;;0.60;96.50;;;;;;5008471;28;20084;-65
2021/01/13 01:06:35;;;;;;;2.75;0.68;;;0.60;96.80;;;;;;5004968;28;20064;-65
2021/01/13 01:09:02;;;;;;;1.58;0.50;;;0.50;96.90;;;;;;5001673;28;20471;-65
2021/01/13 01:11:36;;;;;;;8.88;0.90;;;0.50;97.00;;;;;;5005977;28;20041;-64
2021/01/13 01:14:07;;;;;;;3.08;0.73;;;0.60;96.80;;;;;;5022901;28;20384;-65
2021/01/13 01:16:35;;;;;;;6.03;0.80;;;0.50;96.70;;;;;;5005418;28;20243;-64
2021/01/13 01:19:01;;;;;;;3.97;1.15;;;0.60;96.80;;;;;;5016810;28;20034;-65
2021/01/13 01:21:27;;;;;;;4.72;1.05;;;0.60;96.90;;;;;;5017925;28;20038;-65
2021/01/13 01:23:53;;;;;;;6.40;0.80;;;0.60;96.90;;;;;;5007410;28;20057;-65
2021/01/13 01:26:19;;;;;;;9.18;1.30;;;0.60;97.00;;;;;;5018013;28;20045;-65
2021/01/13 01:28:44;;;;;;;5.50;1.10;;;0.60;96.90;;;;;;5015153;28;20402;-65
2021/01/13 01:31:10;;;;;;;6.40;1.10;;;0.50;96.90;;;;;;4988293;28;20022;-65
2021/01/13 01:33:36;;;;;;;6.90;1.00;;;0.60;97.00;;;;;;5000326;28;20044;-65
2021/01/13 01:36:02;;;;;;;9.02;1.15;;;0.50;97.00;;;;;;5007016;28;20022;-65
2021/01/13 01:38:27;;;;;;;7.05;1.02;;;0.50;97.10;;;;;;5005497;28;20127;-64
2021/01/13 01:41:00;;;;;;;15.15;1.17;;;0.40;97.10;;;;;;5006080;28;20033;-65
2021/01/13 01:43:26;;;;;;;4.25;0.60;;;0.40;97.20;;;;;;5007484;28;20438;-65
2021/01/13 01:45:52;;;;;;;7.68;1.00;;;0.40;97.30;;;;;;5005310;28;20096;-65
2021/01/13 01:48:26;;;;;;;7.00;0.95;;;0.40;97.30;;;;;;5009809;28;20022;-65
2021/01/13 01:50:57;;;;;;;10.20;1.27;;;0.30;97.30;;;;;;5006787;28;20356;-65
2021/01/13 01:53:28;;;;;;;11.52;1.17;;;0.30;97.40;;;;;;4997345;28;20113;-65
2021/01/13 01:56:24;;;;;;;9.20;1.10;;;0.30;97.50;;;;;;5006812;28;20030;-65
2021/01/13 01:59:00;;;;;;;7.72;1.45;;;0.30;97.50;;;;;;5008920;28;20030;-65
2021/01/13 02:01:31;;;;;;;9.68;1.83;;;0.30;97.60;;;;;;5010408;28;20132;-65
2021/01/13 02:04:10;;;;;;;7.95;1.15;;;0.30;97.60;;;;;;4988995;28;20049;-64
2021/01/13 02:07:03;;;;;;;8.93;1.33;;;0.30;97.60;;;;;;5008237;28;20026;-65
2021/01/13 02:09:30;;;;;;;13.23;1.95;;;0.30;97.60;;;;;;4988416;28;20153;-65
2021/01/13 02:11:57;;;;;;;14.80;1.92;;;0.30;97.50;;;;;;5001146;28;20030;-65
2021/01/13 02:14:24;;;;;;;14.18;2.20;;;0.30;97.50;;;;;;5005954;28;20104;-65
2021/01/13 02:16:55;;;;;;;11.05;1.80;;;0.30;97.40;;;;;;5007160;28;20034;-65
2021/01/13 02:19:41;;;;;;;;;;;0.30;97.40;;;;;;5010766;28;20359;-65
2021/01/13 02:22:10;;;;;;;15.32;1.58;;;0.30;97.30;;;;;;5001253;28;19936;-65
2021/01/13 02:25:15;;;;;;;21.65;2.13;;;0.30;97.40;;;;;;5004774;28;20022;-65
2021/01/13 02:28:03;;;;;;;8.05;1.85;;;0.30;97.30;;;;;;5006068;28;20168;-65
2021/01/13 02:30:37;;;;;;;12.18;1.58;;;0.40;97.30;;;;;;5007487;28;20045;-66
2021/01/13 02:33:14;;;;;;;14.20;1.83;;;0.40;97.30;;;;;;5011572;28;20037;-65
2021/01/13 02:35:54;;;;;;;20.02;1.83;;;0.40;97.10;;;;;;5009656;28;20498;-65
2021/01/13 02:38:24;;;;;;;11.65;1.80;;;0.40;97.00;;;;;;5013806;28;20112;-65
2021/01/13 02:40:49;;;;;;;14.15;2.17;;;0.40;97.10;;;;;;5016847;28;20426;-64
2021/01/13 02:43:18;;;;;;;14.57;1.85;;;0.40;96.90;;;;;;5015152;28;20108;-65
2021/01/13 02:45:46;;;;;;;7.22;1.58;;;0.40;96.90;;;;;;5003160;28;20076;-65
2021/01/13 02:48:20;;;;;;;23.98;2.22;;;0.50;96.80;;;;;;5015274;28;20025;-65
2021/01/13 02:50:55;;;;;;;10.85;1.92;;;0.40;96.70;;;;;;5014085;28;20022;-65
2021/01/13 02:53:20;;;;;;;11.27;1.40;;;0.50;96.80;;;;;;5008371;28;20048;-65
2021/01/13 02:55:46;;;;;;;20.02;2.42;;;0.50;96.70;;;;;;5010325;28;20455;-65
2021/01/13 02:58:14;;;;;;;14.75;2.13;;;0.60;96.60;;;;;;5006353;28;20026;-65
2021/01/13 03:00:40;;;;;;;13.23;1.90;;;0.60;96.30;;;;;;5005096;28;20083;-65
2021/01/13 03:03:06;;;;;;;12.50;1.77;;;0.60;96.40;;;;;;5008582;28;20025;-65
2021/01/13 03:05:32;;;;;;;8.13;1.65;;;0.70;96.20;;;;;;5009467;28;20054;-65
2021/01/13 03:07:59;;;;;;;13.35;2.22;;;0.80;95.70;;;;;;5005559;28;20056;-65
2021/01/13 03:10:26;;;;;;;12.82;2.17;;;0.90;95.80;;;;;;4997948;28;20030;-65
2021/01/13 03:13:00;;;;;;;11.18;1.75;;;1.00;95.60;;;;;;5006221;28;20513;-65
2021/01/13 03:15:30;;;;;;;12.40;2.28;;;0.90;95.70;;;;;;4984250;28;20061;-64
2021/01/13 03:18:19;;;;;;;14.23;2.92;;;1.00;95.50;;;;;;5004243;28;20458;-65
2021/01/13 03:21:04;;;;;;;8.32;1.67;;;1.00;95.70;;;;;;4999521;28;20129;-66
2021/01/13 03:23:52;;;;;;;11.50;2.08;;;0.90;95.80;;;;;;5002408;28;20210;-65
2021/01/13 03:26:26;;;;;;;13.45;2.05;;;0.90;95.60;;;;;;5009535;28;20050;-66
2021/01/13 03:28:54;;;;;;;6.90;1.55;;;0.90;95.80;;;;;;5005934;28;20040;-65
2021/01/13 03:31:28;;;;;;;15.27;2.35;;;0.90;96.00;;;;;;5006716;28;20097;-65
2021/01/13 03:34:27;;;;;;;8.85;1.92;;;0.90;95.90;;;;;;5015283;28;20029;-65
2021/01/13 03:37:16;;;;;;;12.07;1.90;;;0.80;96.20;;;;;;5000820;28;20034;-65
2021/01/13 03:39:42;;;;;;;9.70;1.50;;;0.90;96.20;;;;;;5018063;28;20026;-65
2021/01/13 03:42:16;;;;;;;8.63;1.23;;;0.90;96.30;;;;;;5008820;28;20175;-65
2021/01/13 03:44:44;;;;;;;10.85;1.70;;;0.80;96.40;;;;;;5009434;28;20017;-65
2021/01/13 03:47:15;;;;;;;9.55;1.40;;;0.90;96.40;;;;;;5010475;28;20446;-65
2021/01/13 03:49:53;;;;;;;12.73;1.77;;;0.90;96.40;;;;;;5008570;28;20108;-65
2021/01/13 03:52:26;;;;;;;11.90;1.77;;;1.00;96.50;;;;;;5006627;28;20133;-66
2021/01/13 03:54:53;;;;;;;7.82;1.60;;;1.00;96.30;;;;;;5008225;28;20033;-66
2021/01/13 03:57:33;;;;;;;5.70;0.95;;;1.00;96.40;;;;;;5029719;28;20029;-66
2021/01/13 04:00:09;;;;;;;3.47;1.10;;;1.00;96.40;;;;;;4965809;28;20106;-65
2021/01/13 04:02:52;;;;;;;7.68;0.90;;;0.90;96.40;;;;;;4987805;28;20025;-65
2021/01/13 04:05:27;;;;;;;6.68;1.35;;;0.70;96.60;;;;;;4996336;28;20033;-65
2021/01/13 04:07:54;;;;;;;7.72;1.40;;;0.70;96.90;;;;;;5007361;28;20088;-65
2021/01/13 04:10:20;;;;;;;6.82;1.35;;;0.60;97.00;;;;;;4988432;28;20285;-65
2021/01/13 04:12:56;;;;;;;14.40;1.83;;;0.60;97.20;;;;;;5008461;28;20026;-66
2021/01/13 04:15:34;;;;;;;12.63;2.25;;;0.60;97.40;;;;;;5007508;28;20136;-66
2021/01/13 04:18:04;;;;;;;10.93;2.72;;;0.80;97.50;;;;;;5007858;28;20033;-66
2021/01/13 04:20:30;;;;;;;8.30;2.50;;;0.80;97.40;;;;;;5004364;28;20026;-66
2021/01/13 04:22:56;;;;;;;11.02;2.25;;;0.90;97.10;;;;;;5006523;28;20022;-66
2021/01/13 04:25:22;;;;;;;13.40;3.00;;;0.90;97.00;;;;;;5006789;28;20088;-65
2021/01/13 04:27:48;;;;;;;9.05;3.03;;;1.00;96.80;;;;;;5010572;28;20022;-66
2021/01/13 04:30:14;;;;;;;9.40;3.22;;;1.10;96.60;;;;;;5021074;28;20030;-66
2021/01/13 04:32:40;;;;;;;12.05;3.05;;;1.10;96.30;;;;;;5007634;28;20048;-66
2021/01/13 04:35:06;;;;;;;13.32;2.38;;;1.10;96.30;;;;;;5008069;28;20509;-66
2021/01/13 04:37:35;;;;;;;16.17;2.85;;;1.20;96.20;;;;;;5011089;28;20059;-66
2021/01/13 04:40:31;;;;;;;10.57;2.92;;;1.30;95.90;;;;;;5010115;28;20030;-66
2021/01/13 04:43:01;;;;;;;11.57;2.00;;;1.20;96.10;;;;;;5010717;28;20026;-66
2021/01/13 04:45:49;;;;;;;6.90;2.22;;;1.20;96.10;;;;;;5008161;28;20487;-66
2021/01/13 04:48:19;;;;;;;17.55;2.72;;;1.20;96.20;;;;;;4997756;28;20403;-66
2021/01/13 04:50:51;;;;;;;11.30;3.03;;;1.20;96.20;;;;;;5007529;28;20080;-66
2021/01/13 04:53:18;;;;;;;12.88;2.30;;;1.10;96.30;;;;;;5007000;28;20038;-66
2021/01/13 04:55:45;;;;;;;5.90;2.03;;;1.10;96.30;;;;;;5011789;28;20091;-66
2021/01/13 04:58:47;;;;;;;9.73;2.60;;;1.20;96.10;;;;;;5008435;28;20028;-64
2021/01/13 05:01:37;;;;;;;13.20;2.45;;;1.20;96.10;;;;;;5007195;28;20132;-66
2021/01/13 05:04:24;;;;;;;11.35;2.80;;;1.20;96.20;;;;;;5006270;28;20096;-67
2021/01/13 05:07:12;;;;;;;9.40;2.40;;;1.20;96.30;;;;;;5016602;28;20048;-66
2021/01/13 05:09:50;;;;;;;11.25;2.60;;;1.20;96.30;;;;;;5003564;28;20074;-66
2021/01/13 05:12:17;;;;;;;8.13;2.30;;;1.10;96.40;;;;;;5003835;28;20045;-65
2021/01/13 05:14:44;;;;;;;9.10;2.60;;;0.90;96.50;;;;;;5004521;28;20026;-66
2021/01/13 05:17:38;;;;;;;11.82;2.72;;;0.80;96.80;;;;;;4990071;28;20045;-66
2021/01/13 05:20:09;;;;;;;17.77;2.63;;;0.80;97.00;;;;;;4991087;28;20445;-66
2021/01/13 05:22:35;;;;;;;7.68;2.33;;;0.80;97.10;;;;;;5005764;28;20021;-66
2021/01/13 05:25:06;;;;;;;9.52;2.65;;;0.80;97.20;;;;;;5007466;28;20080;-66
2021/01/13 05:27:46;;;;;;;6.07;2.22;;;1.00;97.20;;;;;;5020644;28;20025;-66
2021/01/13 05:30:13;;;;;;;8.95;2.05;;;1.10;97.00;;;;;;5016314;28;20204;-66
2021/01/13 05:32:42;;;;;;;10.65;2.30;;;1.00;96.80;;;;;;5006669;28;20128;-66
2021/01/13 05:35:09;;;;;;;7.05;1.90;;;1.10;96.70;;;;;;4985569;28;20065;-66
2021/01/13 05:37:48;;;;;;;5.57;1.73;;;1.10;96.70;;;;;;4987636;28;20136;-67
2021/01/13 05:40:17;;;;;;;8.13;1.85;;;1.10;96.70;;;;;;4988214;28;20400;-67
2021/01/13 05:42:43;;;;;;;5.93;2.00;;;1.10;96.70;;;;;;4989513;28;20093;-67
2021/01/13 05:45:10;;;;;;;7.25;2.00;;;1.10;96.70;;;;;;4987980;28;20091;-66
2021/01/13 05:47:49;;;;;;;5.55;0.98;;;1.00;96.70;;;;;;4968335;28;20393;-66
2021/01/13 05:50:19;;;;;;;5.25;1.25;;;1.00;96.70;;;;;;4985992;28;20082;-66
2021/01/13 05:52:50;;;;;;;2.00;1.03;;;1.00;96.80;;;;;;4987096;28;20447;-66
2021/01/13 05:55:16;;;;;;;5.32;1.30;;;1.00;96.80;;;;;;4986660;28;20547;-66
2021/01/13 05:58:03;;;;;;;2.15;1.15;;;0.90;96.90;;;;;;4986179;28;20038;-67
2021/01/13 06:00:31;;;;;;;6.68;1.10;;;0.80;97.10;;;;;;4969616;28;20034;-65
2021/01/13 06:03:02;;;;;;;3.60;1.38;;;0.80;97.20;;;;;;4983289;28;20042;-66
2021/01/13 06:05:32;;;;;;;5.68;1.38;;;0.80;97.30;;;;;;4978936;28;20026;-67
2021/01/13 06:07:59;;;;;;;4.72;1.20;;;0.90;97.30;;;;;;4963669;28;20049;-66
2021/01/13 06:10:29;;;;;;;5.15;1.73;;;0.90;97.30;;;;;;4982388;28;20030;-66
2021/01/13 06:12:59;;;;;;;3.65;1.50;;;0.90;97.20;;;;;;4987579;28;20405;-66
2021/01/13 06:15:25;;;;;;;5.47;1.85;;;0.90;97.20;;;;;;4986559;28;20065;-66
2021/01/13 06:17:53;;;;;;;7.22;1.98;;;0.90;97.20;;;;;;4968695;28;20038;-66
2021/01/13 06:20:21;;;;;;;3.45;1.80;;;0.90;97.20;;;;;;4967664;28;20026;-65
2021/01/13 06:22:48;;;;;;;7.60;2.17;;;0.90;97.20;;;;;;4986802;28;20347;-66
2021/01/13 06:25:21;;;;;;;9.35;2.42;;;0.90;97.20;;;;;;4986038;28;20026;-66
2021/01/13 06:28:18;;;;;;;10.07;2.60;;;1.00;97.20;;;;;;4986236;28;20136;-66
2021/01/13 06:30:45;;;;;;;7.55;2.53;;;1.10;97.10;;;;;;4980627;28;20039;-66
2021/01/13 06:35:41;;;;;;;12.90;2.90;;;1.10;97.00;;;;;;4992722;28;20375;-66
2021/01/13 06:38:21;;;;;;;6.65;2.40;;;1.10;97.10;;;;;;4996314;28;20026;-66
2021/01/13 06:40:58;;;;;;;9.07;3.08;;;1.10;97.10;;;;;;4986267;28;20073;-66
2021/01/13 06:43:24;;;;;;;8.30;2.95;;;1.10;97.00;;;;;;4977010;28;20023;-66
2021/01/13 06:45:50;;;;;;;9.35;2.78;;;1.10;97.00;;;;;;4948158;28;20043;-67
2021/01/13 06:48:23;;;;;;;16.38;3.95;;;1.20;97.00;;;;;;4966266;28;20115;-66
2021/01/13 06:50:49;;;;;;;11.38;3.08;;;1.30;96.70;;;;;;4966167;28;20030;-66
2021/01/13 06:53:15;;;;;;;7.18;2.80;;;1.30;96.50;;;;;;4966575;28;20474;-66
2021/01/13 06:55:41;;;;;;;6.95;3.40;;;1.30;96.60;;;;;;4965623;28;20038;-66
2021/01/13 06:58:17;;;;;;;9.93;3.20;;;1.30;96.60;;;;;;4966988;28;20056;-65
2021/01/13 07:00:46;;;;;;;13.90;3.08;;;1.20;96.70;;;;;;4966491;28;20035;-66
2021/01/13 07:03:28;;;;;;;13.88;3.20;;;1.30;96.70;;;;;;4967204;28;20043;-66
2021/01/13 07:05:55;;;;;;;7.93;2.08;;;1.30;96.50;;;;;;4965829;28;20110;-66
2021/01/13 07:08:21;;;;;;;7.75;2.60;;;1.30;96.60;;;;;;4964513;28;20098;-66
2021/01/13 07:10:48;;;;;;;6.32;2.60;;;1.20;96.60;;;;;;4965730;28;20141;-66
2021/01/13 07:13:17;;;;;;;8.50;2.80;;;1.30;96.70;;;;;;4966904;28;20058;-66
2021/01/13 07:15:44;;;;;;;8.00;2.63;;;1.20;96.70;;;;;;4964671;28;20558;-66
2021/01/13 07:18:12;;;;;;;12.30;2.83;;;1.30;96.70;;;;;;4963703;28;20372;-66
2021/01/13 07:20:48;;;;;;;9.27;2.85;;;1.30;96.60;;;;;;4967137;28;20027;-66
2021/01/13 07:23:16;;;;;;;9.70;3.13;;;1.30;96.60;;;;;;4961862;28;20118;-66
2021/01/13 07:25:46;;;;;;;7.45;2.95;;;1.30;96.70;;;;;;4970492;28;20487;-66
2021/01/13 07:28:13;;;;;;;5.80;2.55;;;1.30;96.70;;;;;;4962408;28;20027;-66
2021/01/13 07:30:40;;;;;;;12.38;3.85;;;1.30;96.50;;;;;;4964380;28;20395;-67
2021/01/13 07:33:11;;;;;;;11.10;3.13;;;1.30;96.40;;;;;;4961220;28;20026;-65
2021/01/13 07:35:44;;;;;;;6.32;2.60;;;1.20;96.40;;;;;;4971151;28;20666;-66
2021/01/13 07:38:14;;;;;;;6.75;3.08;;;1.20;96.70;;;;;;4966888;28;20058;-66
2021/01/13 07:40:57;;;;;;;11.30;3.10;;;1.10;96.80;;;;;;4968947;28;20502;-66
2021/01/13 07:44:08;;;;;;;6.13;2.58;;;1.10;96.80;;;;;;4966780;28;20145;-66
2021/01/13 07:46:34;;;;;;;8.70;2.75;;;1.00;96.80;;;;;;4969510;28;20062;-67
2021/01/13 07:49:08;;;;;;;12.38;3.35;;;1.00;96.90;;;;;;4964818;28;20101;-66
2021/01/13 07:51:58;;;;;;;8.05;3.20;;;1.00;97.00;;;;;;4955388;28;20345;-67
2021/01/13 07:54:33;;;;;;;11.15;3.30;;;1.10;97.10;;;;;;4964507;28;20026;-65
2021/01/13 07:57:06;;;;;;;13.23;3.67;;;1.10;97.10;;;;;;4961205;28;20102;-67
2021/01/13 08:00:01;;;;;;;12.38;3.38;;;1.30;96.90;;;;;;4961723;28;20031;-66
2021/01/13 08:02:45;;;;;;;12.23;3.47;;;1.30;96.80;;;;;;4962390;28;20034;-66
2021/01/13 08:05:20;;;;;;;8.27;3.53;;;1.40;96.70;;;;;;4963604;28;20157;-66
2021/01/13 08:08:02;;;;;;;15.48;4.43;;;1.40;96.70;;;;;;4967236;28;20027;-66
2021/01/13 08:10:29;;;;;;;12.00;4.15;;;1.40;96.70;;;;;;4967165;28;20564;-66
2021/01/13 08:13:23;;;;;;;8.85;3.05;;;1.40;96.60;;;;;;4965150;28;20473;-65
2021/01/13 08:16:13;;;;;;;11.90;4.25;;;1.50;96.50;;;;;;4972938;28;20038;-66
2021/01/13 08:19:07;;;;;;;14.47;3.70;;;1.50;96.50;;;;;;4964515;28;20804;-66
2021/01/13 08:24:25;;;;;;;8.65;3.83;;;1.40;96.30;;;;;;4963027;28;20042;-66
2021/01/13 08:26:51;;;;;;;16.13;4.13;;;1.50;96.40;;;;;;4967085;28;20034;-66
2021/01/13 08:29:20;;;;;;;15.70;4.90;;;1.50;96.30;;;;;;4964011;28;21418;-66
2021/01/13 08:31:50;;;;;;;12.77;4.15;;;1.50;96.30;;;;;;4972178;28;20050;-65
2021/01/13 08:34:18;;;;;;;12.07;3.88;;;1.50;96.30;;;;;;4972395;28;20035;-66
2021/01/13 08:36:53;;;;;;;13.27;3.78;;;1.60;96.30;;;;;;4971670;28;20505;-66
2021/01/13 08:39:25;;;;;;;8.85;3.33;;;1.60;96.40;;;;;;4969083;28;20035;-67
2021/01/13 08:41:51;;;;;;;11.90;4.25;;;1.60;96.30;;;;;;4967475;28;20205;-66
2021/01/13 08:44:18;;;;;;;14.40;4.03;;;1.60;96.20;;;;;;4959715;28;20878;-67
2021/01/13 08:47:01;;;;;;;14.25;4.55;;;1.60;96.30;;;;;;4968773;28;20509;-65
2021/01/13 08:49:31;;;;;;;11.20;4.75;;;1.70;96.30;;;;;;4970687;28;20093;-65
2021/01/13 08:52:16;;;;;;;14.82;5.03;;;1.60;96.40;;;;;;4965864;28;20427;-66
2021/01/13 08:55:03;;;;;;;14.40;4.90;;;1.70;96.20;;;;;;4964868;28;20053;-67
2021/01/13 08:57:51;;;;;;;18.85;4.55;;;1.70;96.30;;;;;;4943977;28;20043;-66
2021/01/13 09:00:19;;;;;;;19.55;4.35;;;1.70;96.50;;;;;;4965929;28;20066;-66
2021/01/13 09:03:02;;;;;;;9.02;3.47;;;1.70;96.40;;;;;;4965829;28;20124;-66
2021/01/13 09:05:30;;;;;;;16.05;4.60;;;1.70;96.40;;;;;;4969560;28;20139;-63
2021/01/13 09:08:01;;;;;;;11.82;3.97;;;1.70;96.40;;;;;;4964365;28;20131;-66
2021/01/13 09:10:54;;;;;;;11.43;3.30;;;1.80;96.40;;;;;;4965917;28;20507;-65
2021/01/13 09:13:40;;;;;;;9.65;3.45;;;1.80;95.90;;;;;;4966172;28;20226;-67
2021/01/13 09:16:40;;;;;;;12.48;3.30;;;1.80;95.80;;;;;;4970279;28;20085;-66
2021/01/13 09:19:08;;;;;;;10.75;2.70;;;1.90;96.00;;;;;;4918367;28;20432;-66
2021/01/13 09:21:39;;;;;;;9.25;2.70;;;2.00;96.00;;;;;;4972629;28;20027;-66
2021/01/13 09:24:07;;;;;;;9.32;1.95;;;2.00;95.60;;;;;;4964987;28;20113;-66
2021/01/13 09:26:35;;;;;;;5.95;2.22;;;2.10;95.00;;;;;;4965429;28;20364;-66
2021/01/13 09:29:08;;;;;;;7.70;1.83;;;2.10;95.30;;;;;;4966114;28;20106;-67
2021/01/13 09:31:35;;;;;;;12.23;2.05;;;2.10;95.40;;;;;;4967262;28;20031;-66
2021/01/13 09:34:01;;;;;;;9.70;2.05;;;2.10;95.30;;;;;;4967108;28;20034;-66
2021/01/13 09:36:27;;;;;;;7.55;2.00;;;2.10;95.10;;;;;;4953633;28;20101;-66
2021/01/13 09:39:11;;;;;;;7.13;1.70;;;2.10;95.00;;;;;;4966680;28;20116;-66
2021/01/13 09:41:40;;;;;;;8.75;1.70;;;2.10;95.20;;;;;;4967873;28;20138;-66
2021/01/13 09:44:14;;;;;;;8.32;1.70;;;2.20;95.00;;;;;;4949285;28;20023;-67
2021/01/13 09:46:41;;;;;;;7.75;2.10;;;2.30;94.60;;;;;;4973107;28;20156;-66
2021/01/13 09:49:10;;;;;;;8.02;1.88;;;2.30;95.00;;;;;;4961424;28;20241;-66
2021/01/13 09:51:40;;;;;;;4.97;1.73;;;2.30;95.00;;;;;;4962327;28;20114;-67
2021/01/13 09:54:07;;;;;;;5.90;1.60;;;2.40;94.90;;;;;;4960762;28;20031;-66
2021/01/13 09:56:35;;;;;;;7.18;1.90;;;2.50;94.60;;;;;;4967676;28;20023;-67
2021/01/13 09:59:11;;;;;;;10.10;1.75;;;2.40;94.60;;;;;;4966270;28;20438;-67
2021/01/13 10:01:38;;;;;;;7.55;2.15;;;2.40;94.60;;;;;;4973547;28;20436;-66
2021/01/13 10:04:11;;;;;;;14.93;2.55;;;2.40;94.80;;;;;;4965997;28;20101;-67
2021/01/13 10:06:40;;;;;;;8.20;1.88;;;2.40;94.80;;;;;;4966108;28;20023;-67
2021/01/13 10:09:10;;;;;;;7.13;2.17;;;2.40;95.10;;;;;;4963162;28;20047;-66
2021/01/13 10:11:36;;;;;;;8.65;1.55;;;2.40;94.90;;;;;;4966428;28;20022;-67
2021/01/13 10:14:04;;;;;;;10.45;2.60;;;2.40;94.70;;;;;;4961818;28;20089;-66
2021/01/13 10:16:30;;;;;;;7.57;2.15;;;2.50;94.60;;;;;;4978115;28;20381;-67
2021/01/13 10:19:03;;;;;;;7.95;1.60;;;2.60;94.40;;;;;;4964377;28;20077;-67
2021/01/13 10:21:40;;;;;;;10.50;1.95;;;2.60;94.40;;;;;;4964059;28;20022;-67
2021/01/13 10:24:18;;;;;;;7.82;1.80;;;2.70;94.10;;;;;;4961779;28;21263;-67
2021/01/13 10:26:46;;;;;;;8.07;2.03;;;2.80;93.70;;;;;;4966978;28;20027;-67
2021/01/13 10:29:14;;;;;;;7.13;2.08;;;2.90;93.50;;;;;;4965135;28;20126;-66
2021/01/13 10:31:41;;;;;;;11.60;2.10;;;3.00;93.70;;;;;;4968413;28;20387;-67
2021/01/13 10:34:11;;;;;;;11.93;2.20;;;3.00;93.30;;;;;;4967709;28;20058;-67
2021/01/13 10:36:37;;;;;;;5.13;1.90;;;3.00;93.60;;;;;;4965760;28;20038;-67
2021/01/13 10:39:10;;;;;;;13.18;2.30;;;3.00;93.00;;;;;;4965908;28;20286;-67
2021/01/13 10:41:48;;;;;;;7.28;1.98;;;3.10;93.40;;;;;;4964108;28;20035;-66
2021/01/13 10:44:20;;;;;;;10.60;2.10;;;3.10;93.10;;;;;;4956604;28;20022;-66
2021/01/13 10:46:51;;;;;;;5.70;1.75;;;3.10;92.70;;;;;;4965584;28;20027;-66
2021/01/13 10:49:25;;;;;;;;;;;3.30;92.60;;;;;;4943980;28;20035;-67
2021/01/13 10:51:58;;;;;;;14.20;2.00;;;3.30;92.40;;;;;;4962918;28;19937;-66
2021/01/13 10:54:26;;;;;;;7.00;1.80;;;3.20;92.80;;;;;;4962356;28;20035;-66
2021/01/13 10:56:58;;;;;;;10.75;2.10;;;3.30;92.90;;;;;;4961969;28;20499;-64
2021/01/13 10:59:24;;;;;;;11.75;2.15;;;3.30;92.50;;;;;;4961989;28;20156;-65
2021/01/13 11:01:52;;;;;;;13.38;2.10;;;3.40;92.50;;;;;;4961982;28;20122;-66
2021/01/13 11:04:21;;;;;;;8.68;1.70;;;3.40;92.10;;;;;;4960031;28;20109;-64
2021/01/13 11:06:53;;;;;;;11.60;2.45;;;3.50;91.10;;;;;;4967828;28;20031;-67
2021/01/13 11:09:21;;;;;;;9.77;2.10;;;3.60;91.40;;;;;;4961077;28;20065;-67
2021/01/13 11:11:47;;;;;;;8.63;1.35;;;3.60;91.40;;;;;;4966499;28;20309;-65
2021/01/13 11:14:13;;;;;;;7.18;1.70;;;3.70;90.90;;;;;;4962541;28;21183;-66
2021/01/13 11:16:59;;;;;;;9.93;1.88;;;3.70;90.80;;;;;;4960970;28;20108;-66
2021/01/13 11:19:25;;;;;;;9.30;2.28;;;3.70;90.40;;;;;;4955136;28;20057;-67
2021/01/13 11:21:55;;;;;;;9.73;2.10;;;3.70;90.60;;;;;;4965590;28;20054;-66
2021/01/13 11:24:31;;;;;;;10.70;1.73;;;3.80;90.60;;;;;;4961825;28;20091;-66
2021/01/13 11:27:00;;;;;;;11.23;1.70;;;4.00;90.30;;;;;;4968832;28;20034;-67
2021/01/13 11:29:29;;;;;;;8.93;1.70;;;3.90;89.70;;;;;;4959690;28;20035;-67
2021/01/13 11:31:55;;;;;;;12.70;1.67;;;3.90;90.50;;;;;;4963732;28;20141;-66
2021/01/13 11:34:22;;;;;;;10.55;1.27;;;3.80;90.60;;;;;;4964586;28;20034;-66
2021/01/13 11:37:13;;;;;;;9.13;2.45;;;3.80;90.10;;;;;;4946001;28;20042;-67
2021/01/13 11:39:48;;;;;;;11.93;2.03;;;3.80;90.70;;;;;;4960662;28;20118;-67
2021/01/13 11:42:51;;;;;;;7.70;1.70;;;3.70;91.00;;;;;;4964881;28;20035;-67
2021/01/13 11:45:25;;;;;;;6.85;1.42;;;3.70;91.10;;;;;;4961387;28;20034;-67
2021/01/13 11:47:54;;;;;;;9.40;2.03;;;3.70;90.90;;;;;;4963040;28;20043;-67
2021/01/13 11:50:23;;;;;;;10.38;2.08;;;3.80;90.40;;;;;;4963850;28;20034;-67
2021/01/13 11:52:52;;;;;;;18.90;2.10;;;3.80;90.30;;;;;;4958921;28;20023;-67
2021/01/13 11:55:25;;;;;;;10.63;1.77;;;3.90;90.10;;;;;;4962726;28;20193;-66
2021/01/13 11:57:50;;;;;;;15.13;1.92;;;4.00;90.00;;;;;;4961050;28;20026;-67
2021/01/13 12:00:18;;;;;;;10.02;2.22;;;3.90;89.60;;;;;;4965443;28;20323;-67
2021/01/13 12:02:55;;;;;;;11.60;2.20;;;3.90;90.40;;;;;;4968126;28;20030;-67
2021/01/13 12:05:34;;;;;;;11.40;1.92;;;3.80;90.60;;;;;;4966029;28;20030;-67
2021/01/13 12:08:05;;;;;;;5.90;1.65;;;3.90;91.00;;;;;;4963939;28;20042;-67
2021/01/13 12:10:39;;;;;;;15.55;3.00;;;3.90;90.10;;;;;;4967085;28;20100;-67
2021/01/13 12:13:22;;;;;;;11.80;1.95;;;3.80;90.50;;;;;;4966755;28;20031;-67
2021/01/13 12:15:59;;;;;;;10.60;2.05;;;3.80;90.90;;;;;;4965763;28;20086;-67
2021/01/13 12:18:28;;;;;;;10.38;1.77;;;3.90;91.00;;;;;;4964454;28;20034;-67
2021/01/13 12:21:15;;;;;;;11.55;1.90;;;3.90;90.60;;;;;;4949052;28;20054;-66
2021/01/13 12:23:41;;;;;;;9.35;1.55;;;3.90;90.80;;;;;;4953713;28;20134;-67
2021/01/13 12:26:30;;;;;;;6.53;1.80;;;4.00;90.20;;;;;;4969140;28;20031;-67
2021/01/13 12:28:57;;;;;;;10.55;2.00;;;4.10;89.60;;;;;;4956103;28;20027;-67
2021/01/13 12:31:32;;;;;;;13.57;2.67;;;4.20;90.10;;;;;;4965775;28;20053;-67
2021/01/13 12:33:58;;;;;;;8.45;1.65;;;4.30;90.20;;;;;;4950714;28;20041;-68
2021/01/13 12:36:28;;;;;;;9.52;2.05;;;4.50;89.50;;;;;;4969405;28;20190;-67
2021/01/13 12:38:56;;;;;;;9.20;1.15;;;4.70;88.80;;;;;;4968307;28;20352;-68
2021/01/13 12:41:26;;;;;;;8.30;1.55;;;4.70;88.30;;;;;;4974566;28;20068;-68
2021/01/13 12:44:00;;;;;;;8.35;1.67;;;4.40;88.70;;;;;;4966327;28;20070;-68
2021/01/13 12:47:02;;;;;;;12.00;1.77;;;4.30;89.60;;;;;;4949185;28;20416;-68
2021/01/13 12:49:27;;;;;;;;;;;4.30;90.10;;;;;;4962558;28;20089;-68
2021/01/13 12:51:54;;;;;;;6.22;1.40;;;4.20;89.30;;;;;;4963488;28;19953;-68
2021/01/13 12:54:20;;;;;;;10.00;2.30;;;4.20;90.30;;;;;;4964817;28;20057;-67
2021/01/13 12:56:46;;;;;;;11.60;1.55;;;4.10;90.80;;;;;;4948044;28;20113;-67
2021/01/13 12:59:12;;;;;;;8.85;1.30;;;4.10;90.20;;;;;;4970245;28;20354;-67
2021/01/13 13:01:40;;;;;;;6.13;1.45;;;4.20;90.10;;;;;;4946613;28;20121;-66
2021/01/13 13:04:06;;;;;;;8.63;1.92;;;4.10;90.00;;;;;;4960438;28;20023;-67
2021/01/13 13:06:33;;;;;;;11.50;1.42;;;4.10;90.50;;;;;;4965562;28;20528;-68
2021/01/13 13:09:00;;;;;;;12.65;1.58;;;4.10;90.10;;;;;;4967060;28;20130;-68
2021/01/13 13:11:27;;;;;;;8.27;1.85;;;4.10;90.30;;;;;;4967217;28;20015;-68
2021/01/13 13:14:02;;;;;;;9.88;1.83;;;4.10;90.60;;;;;;4967417;28;20437;-68
2021/01/13 13:16:28;;;;;;;5.97;1.25;;;4.10;89.90;;;;;;4969214;28;20030;-68
2021/01/13 13:18:54;;;;;;;13.15;2.20;;;4.10;90.50;;;;;;4962636;28;20023;-68
2021/01/13 13:21:22;;;;;;;5.20;1.42;;;4.00;90.70;;;;;;4969461;28;20031;-68
2021/01/13 13:23:48;;;;;;;6.03;1.33;;;4.00;90.50;;;;;;4965739;28;20090;-67